sensor_id;sensor_type;location;lat;lon;timestamp;temperature;humidity
27940;DHT22;15275;51.716;14.324;2023-05-14T00:01:40;15.50;80.30
27940;DHT22;15275;51.716;14.324;2023-05-14T00:04:06;15.50;80.30
27940;DHT22;15275;51.716;14.324;2023-05-14T00:06:32;15.50;80.20
27940;DHT22;15275;51.716;14.324;2023-05-14T00:08:57;15.40;80.20
27940;DHT22;15275;51.716;14.324;2023-05-14T00:11:23;15.40;80.20
27940;DHT22;15275;51.716;14.324;2023-05-14T00:13:49;15.40;80.20
27940;DHT22;15275;51.716;14.324;2023-05-14T00:16:15;15.40;80.10
27940;DHT22;15275;51.716;14.324;2023-05-14T00:18:41;15.30;80.10
27940;DHT22;15275;51.716;14.324;2023-05-14T00:21:07;15.30;80.00
27940;DHT22;15275;51.716;14.324;2023-05-14T00:23:33;15.30;79.90
27940;DHT22;15275;51.716;14.324;2023-05-14T00:25:59;15.20;79.80
27940;DHT22;15275;51.716;14.324;2023-05-14T00:28:24;15.20;79.70
27940;DHT22;15275;51.716;14.324;2023-05-14T00:30:50;15.10;79.60
27940;DHT22;15275;51.716;14.324;2023-05-14T00:33:16;15.10;79.60
27940;DHT22;15275;51.716;14.324;2023-05-14T00:35:42;15.00;79.60
27940;DHT22;15275;51.716;14.324;2023-05-14T00:38:08;15.00;79.60
27940;DHT22;15275;51.716;14.324;2023-05-14T00:40:35;14.90;79.60
27940;DHT22;15275;51.716;14.324;2023-05-14T00:43:02;14.90;79.80
27940;DHT22;15275;51.716;14.324;2023-05-14T00:45:28;14.80;79.80
27940;DHT22;15275;51.716;14.324;2023-05-14T00:47:54;14.80;79.80
27940;DHT22;15275;51.716;14.324;2023-05-14T00:50:20;14.70;79.80
27940;DHT22;15275;51.716;14.324;2023-05-14T00:52:46;14.70;79.80
27940;DHT22;15275;51.716;14.324;2023-05-14T00:55:15;14.60;79.80
27940;DHT22;15275;51.716;14.324;2023-05-14T00:57:42;14.60;79.80
27940;DHT22;15275;51.716;14.324;2023-05-14T01:00:09;14.50;79.90
27940;DHT22;15275;51.716;14.324;2023-05-14T01:02:35;14.50;79.90
27940;DHT22;15275;51.716;14.324;2023-05-14T01:05:01;14.40;80.00
27940;DHT22;15275;51.716;14.324;2023-05-14T01:10:31;14.30;79.70
27940;DHT22;15275;51.716;14.324;2023-05-14T01:13:26;14.30;79.70
27940;DHT22;15275;51.716;14.324;2023-05-14T01:15:59;14.30;79.70
27940;DHT22;15275;51.716;14.324;2023-05-14T01:18:27;14.20;79.70
27940;DHT22;15275;51.716;14.324;2023-05-14T01:20:53;14.20;79.70
27940;DHT22;15275;51.716;14.324;2023-05-14T01:23:19;14.10;79.70
27940;DHT22;15275;51.716;14.324;2023-05-14T01:25:45;14.10;79.70
27940;DHT22;15275;51.716;14.324;2023-05-14T01:33:32;13.90;79.50
27940;DHT22;15275;51.716;14.324;2023-05-14T01:35:59;13.90;79.70
27940;DHT22;15275;51.716;14.324;2023-05-14T01:38:26;13.80;79.70
27940;DHT22;15275;51.716;14.324;2023-05-14T01:40:56;13.80;79.90
27940;DHT22;15275;51.716;14.324;2023-05-14T01:43:23;13.80;80.20
27940;DHT22;15275;51.716;14.324;2023-05-14T01:45:49;13.70;80.20
27940;DHT22;15275;51.716;14.324;2023-05-14T01:48:14;13.70;80.10
27940;DHT22;15275;51.716;14.324;2023-05-14T01:50:40;13.60;80.20
27940;DHT22;15275;51.716;14.324;2023-05-14T01:53:06;13.60;80.20
27940;DHT22;15275;51.716;14.324;2023-05-14T01:55:32;13.60;80.20
27940;DHT22;15275;51.716;14.324;2023-05-14T01:57:58;13.50;80.10
27940;DHT22;15275;51.716;14.324;2023-05-14T02:00:24;13.50;80.10
27940;DHT22;15275;51.716;14.324;2023-05-14T02:02:50;13.50;80.00
27940;DHT22;15275;51.716;14.324;2023-05-14T02:05:16;13.40;79.90
27940;DHT22;15275;51.716;14.324;2023-05-14T02:07:42;13.40;79.90
27940;DHT22;15275;51.716;14.324;2023-05-14T02:10:08;13.40;79.90
27940;DHT22;15275;51.716;14.324;2023-05-14T02:12:35;13.30;79.90
27940;DHT22;15275;51.716;14.324;2023-05-14T02:15:02;13.30;79.90
27940;DHT22;15275;51.716;14.324;2023-05-14T02:17:28;13.20;79.90
27940;DHT22;15275;51.716;14.324;2023-05-14T02:19:54;13.20;79.90
27940;DHT22;15275;51.716;14.324;2023-05-14T02:22:20;13.20;79.90
27940;DHT22;15275;51.716;14.324;2023-05-14T02:24:46;13.10;80.00
27940;DHT22;15275;51.716;14.324;2023-05-14T02:27:14;13.10;80.10
27940;DHT22;15275;51.716;14.324;2023-05-14T02:29:40;13.10;80.00
27940;DHT22;15275;51.716;14.324;2023-05-14T02:32:06;13.00;80.10
27940;DHT22;15275;51.716;14.324;2023-05-14T02:34:32;13.00;80.10
27940;DHT22;15275;51.716;14.324;2023-05-14T02:36:58;12.90;80.10
27940;DHT22;15275;51.716;14.324;2023-05-14T02:39:25;12.90;80.00
27940;DHT22;15275;51.716;14.324;2023-05-14T02:41:51;12.90;79.90
27940;DHT22;15275;51.716;14.324;2023-05-14T02:44:16;12.80;79.90
27940;DHT22;15275;51.716;14.324;2023-05-14T02:46:42;12.80;79.90
27940;DHT22;15275;51.716;14.324;2023-05-14T02:49:08;12.70;79.90
27940;DHT22;15275;51.716;14.324;2023-05-14T02:51:34;12.70;79.90
27940;DHT22;15275;51.716;14.324;2023-05-14T02:54:00;12.70;79.90
27940;DHT22;15275;51.716;14.324;2023-05-14T02:56:26;12.70;79.90
27940;DHT22;15275;51.716;14.324;2023-05-14T02:58:52;12.60;79.90
27940;DHT22;15275;51.716;14.324;2023-05-14T03:01:18;12.60;79.90
27940;DHT22;15275;51.716;14.324;2023-05-14T03:03:44;12.60;80.00
27940;DHT22;15275;51.716;14.324;2023-05-14T03:06:10;12.50;80.00
27940;DHT22;15275;51.716;14.324;2023-05-14T03:08:36;12.50;80.10
27940;DHT22;15275;51.716;14.324;2023-05-14T03:11:02;12.40;80.10
27940;DHT22;15275;51.716;14.324;2023-05-14T03:13:28;12.40;80.10
27940;DHT22;15275;51.716;14.324;2023-05-14T03:15:54;12.40;80.10
27940;DHT22;15275;51.716;14.324;2023-05-14T03:18:21;12.40;80.10
27940;DHT22;15275;51.716;14.324;2023-05-14T03:20:47;12.30;80.00
27940;DHT22;15275;51.716;14.324;2023-05-14T03:23:13;12.30;80.10
27940;DHT22;15275;51.716;14.324;2023-05-14T03:25:40;12.30;80.30
27940;DHT22;15275;51.716;14.324;2023-05-14T03:28:06;12.20;80.40
27940;DHT22;15275;51.716;14.324;2023-05-14T03:30:32;12.20;80.60
27940;DHT22;15275;51.716;14.324;2023-05-14T03:32:58;12.20;80.70
27940;DHT22;15275;51.716;14.324;2023-05-14T03:35:24;12.20;80.90
27940;DHT22;15275;51.716;14.324;2023-05-14T03:37:50;12.20;80.90
27940;DHT22;15275;51.716;14.324;2023-05-14T03:40:17;12.20;80.90
27940;DHT22;15275;51.716;14.324;2023-05-14T03:42:43;12.20;80.90
27940;DHT22;15275;51.716;14.324;2023-05-14T03:45:09;12.20;80.90
27940;DHT22;15275;51.716;14.324;2023-05-14T03:47:35;12.20;80.90
27940;DHT22;15275;51.716;14.324;2023-05-14T03:50:01;12.20;80.90
27940;DHT22;15275;51.716;14.324;2023-05-14T03:52:27;12.20;81.00
27940;DHT22;15275;51.716;14.324;2023-05-14T03:54:53;12.20;81.00
27940;DHT22;15275;51.716;14.324;2023-05-14T03:57:18;12.20;81.00
27940;DHT22;15275;51.716;14.324;2023-05-14T03:59:45;12.20;81.10
27940;DHT22;15275;51.716;14.324;2023-05-14T04:02:11;12.20;81.20
27940;DHT22;15275;51.716;14.324;2023-05-14T04:04:37;12.20;81.20
27940;DHT22;15275;51.716;14.324;2023-05-14T04:07:03;12.20;81.20
27940;DHT22;15275;51.716;14.324;2023-05-14T04:09:29;12.20;81.30
27940;DHT22;15275;51.716;14.324;2023-05-14T04:11:54;12.20;81.50
27940;DHT22;15275;51.716;14.324;2023-05-14T04:14:20;12.30;81.60
27940;DHT22;15275;51.716;14.324;2023-05-14T04:16:46;12.30;81.70
27940;DHT22;15275;51.716;14.324;2023-05-14T04:19:12;12.30;81.80
27940;DHT22;15275;51.716;14.324;2023-05-14T04:21:38;12.30;81.90
27940;DHT22;15275;51.716;14.324;2023-05-14T04:24:04;12.40;82.00
27940;DHT22;15275;51.716;14.324;2023-05-14T04:26:30;12.40;82.10
27940;DHT22;15275;51.716;14.324;2023-05-14T04:28:56;12.40;82.20
27940;DHT22;15275;51.716;14.324;2023-05-14T04:31:22;12.50;82.30
27940;DHT22;15275;51.716;14.324;2023-05-14T04:33:48;12.50;82.50
27940;DHT22;15275;51.716;14.324;2023-05-14T04:36:14;12.60;82.50
27940;DHT22;15275;51.716;14.324;2023-05-14T04:38:40;12.60;82.40
27940;DHT22;15275;51.716;14.324;2023-05-14T04:41:06;12.70;82.30
27940;DHT22;15275;51.716;14.324;2023-05-14T04:43:32;12.70;82.30
27940;DHT22;15275;51.716;14.324;2023-05-14T04:45:58;12.80;82.10
27940;DHT22;15275;51.716;14.324;2023-05-14T04:48:24;12.80;82.00
27940;DHT22;15275;51.716;14.324;2023-05-14T04:50:50;12.80;82.00
27940;DHT22;15275;51.716;14.324;2023-05-14T04:53:16;12.90;82.00
27940;DHT22;15275;51.716;14.324;2023-05-14T04:55:42;12.90;82.10
27940;DHT22;15275;51.716;14.324;2023-05-14T04:58:08;13.00;82.20
27940;DHT22;15275;51.716;14.324;2023-05-14T05:00:34;13.00;82.30
27940;DHT22;15275;51.716;14.324;2023-05-14T05:02:59;13.10;82.20
27940;DHT22;15275;51.716;14.324;2023-05-14T05:05:25;13.10;82.20
27940;DHT22;15275;51.716;14.324;2023-05-14T05:07:51;13.20;82.00
27940;DHT22;15275;51.716;14.324;2023-05-14T05:10:17;13.20;82.10
27940;DHT22;15275;51.716;14.324;2023-05-14T05:12:43;13.20;82.20
27940;DHT22;15275;51.716;14.324;2023-05-14T05:15:09;13.30;82.20
27940;DHT22;15275;51.716;14.324;2023-05-14T05:17:35;13.40;82.20
27940;DHT22;15275;51.716;14.324;2023-05-14T05:20:01;13.40;82.20
27940;DHT22;15275;51.716;14.324;2023-05-14T05:22:30;13.50;82.20
27940;DHT22;15275;51.716;14.324;2023-05-14T05:24:56;13.60;82.30
27940;DHT22;15275;51.716;14.324;2023-05-14T05:27:23;13.70;82.30
27940;DHT22;15275;51.716;14.324;2023-05-14T05:29:48;13.70;82.20
27940;DHT22;15275;51.716;14.324;2023-05-14T05:32:14;13.80;82.10
27940;DHT22;15275;51.716;14.324;2023-05-14T05:34:40;13.90;82.00
27940;DHT22;15275;51.716;14.324;2023-05-14T05:37:06;14.00;82.00
27940;DHT22;15275;51.716;14.324;2023-05-14T05:39:33;14.10;82.00
27940;DHT22;15275;51.716;14.324;2023-05-14T05:42:04;14.20;82.00
27940;DHT22;15275;51.716;14.324;2023-05-14T05:44:30;14.20;81.90
27940;DHT22;15275;51.716;14.324;2023-05-14T05:46:56;14.30;81.70
27940;DHT22;15275;51.716;14.324;2023-05-14T05:49:22;14.50;81.30
27940;DHT22;15275;51.716;14.324;2023-05-14T05:51:48;14.50;80.90
27940;DHT22;15275;51.716;14.324;2023-05-14T05:54:14;14.60;80.70
27940;DHT22;15275;51.716;14.324;2023-05-14T05:56:40;14.70;80.60
27940;DHT22;15275;51.716;14.324;2023-05-14T05:59:06;14.80;80.30
27940;DHT22;15275;51.716;14.324;2023-05-14T06:01:31;14.90;80.20
27940;DHT22;15275;51.716;14.324;2023-05-14T06:03:57;14.90;80.10
27940;DHT22;15275;51.716;14.324;2023-05-14T06:06:23;15.00;80.30
27940;DHT22;15275;51.716;14.324;2023-05-14T06:08:49;15.10;80.10
27940;DHT22;15275;51.716;14.324;2023-05-14T06:11:15;15.20;80.10
27940;DHT22;15275;51.716;14.324;2023-05-14T06:13:41;15.30;80.00
27940;DHT22;15275;51.716;14.324;2023-05-14T06:16:07;15.40;79.50
27940;DHT22;15275;51.716;14.324;2023-05-14T06:18:34;15.50;79.30
27940;DHT22;15275;51.716;14.324;2023-05-14T06:21:00;15.60;79.50
27940;DHT22;15275;51.716;14.324;2023-05-14T06:23:26;15.70;79.40
27940;DHT22;15275;51.716;14.324;2023-05-14T06:25:52;15.90;79.50
27940;DHT22;15275;51.716;14.324;2023-05-14T06:28:18;16.00;79.50
27940;DHT22;15275;51.716;14.324;2023-05-14T06:30:43;16.10;78.70
27940;DHT22;15275;51.716;14.324;2023-05-14T06:33:09;16.20;78.70
27940;DHT22;15275;51.716;14.324;2023-05-14T06:35:37;16.30;78.60
27940;DHT22;15275;51.716;14.324;2023-05-14T06:38:03;16.40;78.40
27940;DHT22;15275;51.716;14.324;2023-05-14T06:40:29;16.50;78.50
27940;DHT22;15275;51.716;14.324;2023-05-14T06:42:55;16.60;78.20
27940;DHT22;15275;51.716;14.324;2023-05-14T06:45:20;16.70;78.40
27940;DHT22;15275;51.716;14.324;2023-05-14T06:47:47;16.80;78.10
27940;DHT22;15275;51.716;14.324;2023-05-14T06:50:12;16.90;78.30
27940;DHT22;15275;51.716;14.324;2023-05-14T06:52:38;17.10;77.90
27940;DHT22;15275;51.716;14.324;2023-05-14T06:55:05;17.20;78.00
27940;DHT22;15275;51.716;14.324;2023-05-14T06:57:31;17.30;77.70
27940;DHT22;15275;51.716;14.324;2023-05-14T06:59:58;17.40;77.20
27940;DHT22;15275;51.716;14.324;2023-05-14T07:02:24;17.60;76.90
27940;DHT22;15275;51.716;14.324;2023-05-14T07:04:50;17.70;76.60
27940;DHT22;15275;51.716;14.324;2023-05-14T07:07:16;17.80;76.40
27940;DHT22;15275;51.716;14.324;2023-05-14T07:09:45;17.90;76.00
27940;DHT22;15275;51.716;14.324;2023-05-14T07:12:11;18.00;75.90
27940;DHT22;15275;51.716;14.324;2023-05-14T07:14:37;18.10;75.90
27940;DHT22;15275;51.716;14.324;2023-05-14T07:17:03;18.30;75.70
27940;DHT22;15275;51.716;14.324;2023-05-14T07:19:29;18.40;75.50
27940;DHT22;15275;51.716;14.324;2023-05-14T07:21:55;18.50;75.10
27940;DHT22;15275;51.716;14.324;2023-05-14T07:24:22;18.60;74.80
27940;DHT22;15275;51.716;14.324;2023-05-14T07:26:48;18.70;75.00
27940;DHT22;15275;51.716;14.324;2023-05-14T07:29:14;18.80;74.20
27940;DHT22;15275;51.716;14.324;2023-05-14T07:31:40;18.90;73.70
27940;DHT22;15275;51.716;14.324;2023-05-14T07:34:06;19.00;73.20
27940;DHT22;15275;51.716;14.324;2023-05-14T07:36:33;19.10;73.40
27940;DHT22;15275;51.716;14.324;2023-05-14T07:38:59;19.20;73.80
27940;DHT22;15275;51.716;14.324;2023-05-14T07:41:25;19.30;73.40
27940;DHT22;15275;51.716;14.324;2023-05-14T07:43:51;19.40;73.00
27940;DHT22;15275;51.716;14.324;2023-05-14T07:46:16;19.40;73.20
27940;DHT22;15275;51.716;14.324;2023-05-14T07:48:42;19.50;73.30
27940;DHT22;15275;51.716;14.324;2023-05-14T07:51:08;19.60;73.30
27940;DHT22;15275;51.716;14.324;2023-05-14T07:53:34;19.70;72.60
27940;DHT22;15275;51.716;14.324;2023-05-14T07:56:00;19.80;72.60
27940;DHT22;15275;51.716;14.324;2023-05-14T07:58:26;19.90;71.60
27940;DHT22;15275;51.716;14.324;2023-05-14T08:00:55;20.00;71.60
27940;DHT22;15275;51.716;14.324;2023-05-14T08:03:22;20.10;71.50
27940;DHT22;15275;51.716;14.324;2023-05-14T08:05:48;20.20;71.60
27940;DHT22;15275;51.716;14.324;2023-05-14T08:08:14;20.30;71.70
27940;DHT22;15275;51.716;14.324;2023-05-14T08:10:40;20.40;71.10
27940;DHT22;15275;51.716;14.324;2023-05-14T08:13:06;20.50;70.30
27940;DHT22;15275;51.716;14.324;2023-05-14T08:15:32;20.60;70.40
27940;DHT22;15275;51.716;14.324;2023-05-14T08:17:57;20.70;69.00
27940;DHT22;15275;51.716;14.324;2023-05-14T08:20:28;20.70;69.20
27940;DHT22;15275;51.716;14.324;2023-05-14T08:22:56;20.80;68.40
27940;DHT22;15275;51.716;14.324;2023-05-14T08:25:24;20.90;68.10
27940;DHT22;15275;51.716;14.324;2023-05-14T08:27:50;21.00;67.90
27940;DHT22;15275;51.716;14.324;2023-05-14T08:30:18;21.10;67.90
27940;DHT22;15275;51.716;14.324;2023-05-14T08:32:44;21.20;67.50
27940;DHT22;15275;51.716;14.324;2023-05-14T08:35:10;21.30;67.70
27940;DHT22;15275;51.716;14.324;2023-05-14T08:37:36;21.30;67.50
27940;DHT22;15275;51.716;14.324;2023-05-14T08:40:02;21.40;67.20
27940;DHT22;15275;51.716;14.324;2023-05-14T08:42:28;21.50;66.70
27940;DHT22;15275;51.716;14.324;2023-05-14T08:45:01;21.60;66.30
27940;DHT22;15275;51.716;14.324;2023-05-14T08:47:29;21.70;63.50
27940;DHT22;15275;51.716;14.324;2023-05-14T08:50:05;21.80;64.20
27940;DHT22;15275;51.716;14.324;2023-05-14T08:52:33;21.90;61.30
27940;DHT22;15275;51.716;14.324;2023-05-14T08:55:02;21.90;63.80
27940;DHT22;15275;51.716;14.324;2023-05-14T08:57:31;21.90;64.50
27940;DHT22;15275;51.716;14.324;2023-05-14T08:59:57;22.00;64.30
27940;DHT22;15275;51.716;14.324;2023-05-14T09:02:28;22.00;63.80
27940;DHT22;15275;51.716;14.324;2023-05-14T09:04:57;22.10;61.90
27940;DHT22;15275;51.716;14.324;2023-05-14T09:07:24;22.20;61.70
27940;DHT22;15275;51.716;14.324;2023-05-14T09:09:51;22.20;62.10
27940;DHT22;15275;51.716;14.324;2023-05-14T09:12:17;22.30;61.80
27940;DHT22;15275;51.716;14.324;2023-05-14T09:14:44;22.30;62.20
27940;DHT22;15275;51.716;14.324;2023-05-14T09:17:10;22.40;63.00
27940;DHT22;15275;51.716;14.324;2023-05-14T09:19:42;22.50;62.20
27940;DHT22;15275;51.716;14.324;2023-05-14T09:22:11;22.50;61.00
27940;DHT22;15275;51.716;14.324;2023-05-14T09:24:38;22.60;60.50
27940;DHT22;15275;51.716;14.324;2023-05-14T09:27:05;22.60;61.10
27940;DHT22;15275;51.716;14.324;2023-05-14T09:29:31;22.60;61.50
27940;DHT22;15275;51.716;14.324;2023-05-14T09:31:59;22.60;61.70
27940;DHT22;15275;51.716;14.324;2023-05-14T09:34:33;22.70;60.70
27940;DHT22;15275;51.716;14.324;2023-05-14T09:37:06;22.80;60.10
27940;DHT22;15275;51.716;14.324;2023-05-14T09:39:34;22.80;60.10
27940;DHT22;15275;51.716;14.324;2023-05-14T09:42:01;22.90;61.30
27940;DHT22;15275;51.716;14.324;2023-05-14T09:44:28;23.00;60.80
27940;DHT22;15275;51.716;14.324;2023-05-14T09:46:54;23.10;61.60
27940;DHT22;15275;51.716;14.324;2023-05-14T09:49:20;23.20;61.40
27940;DHT22;15275;51.716;14.324;2023-05-14T09:51:48;23.30;61.10
27940;DHT22;15275;51.716;14.324;2023-05-14T09:54:14;23.30;61.30
27940;DHT22;15275;51.716;14.324;2023-05-14T09:56:41;23.40;60.70
27940;DHT22;15275;51.716;14.324;2023-05-14T09:59:07;23.50;60.50
27940;DHT22;15275;51.716;14.324;2023-05-14T10:01:34;23.60;61.40
27940;DHT22;15275;51.716;14.324;2023-05-14T10:04:02;23.70;60.60
27940;DHT22;15275;51.716;14.324;2023-05-14T10:06:35;23.80;59.30
27940;DHT22;15275;51.716;14.324;2023-05-14T10:09:09;23.80;58.00
27940;DHT22;15275;51.716;14.324;2023-05-14T10:11:39;23.80;56.10
27940;DHT22;15275;51.716;14.324;2023-05-14T10:14:17;23.80;58.70
27940;DHT22;15275;51.716;14.324;2023-05-14T10:16:52;23.70;56.70
27940;DHT22;15275;51.716;14.324;2023-05-14T10:19:23;23.70;55.90
27940;DHT22;15275;51.716;14.324;2023-05-14T10:21:58;23.70;57.20
27940;DHT22;15275;51.716;14.324;2023-05-14T10:24:28;23.60;56.70
27940;DHT22;15275;51.716;14.324;2023-05-14T10:26:55;23.60;58.90
27940;DHT22;15275;51.716;14.324;2023-05-14T10:29:35;23.60;58.40
27940;DHT22;15275;51.716;14.324;2023-05-14T10:32:07;23.60;54.90
27940;DHT22;15275;51.716;14.324;2023-05-14T10:34:40;23.60;58.70
27940;DHT22;15275;51.716;14.324;2023-05-14T10:37:15;23.70;60.30
27940;DHT22;15275;51.716;14.324;2023-05-14T10:39:53;23.90;60.70
27940;DHT22;15275;51.716;14.324;2023-05-14T10:42:30;24.10;56.80
27940;DHT22;15275;51.716;14.324;2023-05-14T10:45:06;24.20;57.10
27940;DHT22;15275;51.716;14.324;2023-05-14T10:47:41;24.30;57.00
27940;DHT22;15275;51.716;14.324;2023-05-14T10:50:14;24.40;57.10
27940;DHT22;15275;51.716;14.324;2023-05-14T10:52:41;24.50;58.60
27940;DHT22;15275;51.716;14.324;2023-05-14T10:55:15;24.60;58.30
27940;DHT22;15275;51.716;14.324;2023-05-14T10:57:44;24.70;56.70
27940;DHT22;15275;51.716;14.324;2023-05-14T11:00:12;24.80;56.40
27940;DHT22;15275;51.716;14.324;2023-05-14T11:02:43;24.80;57.20
27940;DHT22;15275;51.716;14.324;2023-05-14T11:05:15;24.80;57.80
27940;DHT22;15275;51.716;14.324;2023-05-14T11:07:49;24.90;56.90
27940;DHT22;15275;51.716;14.324;2023-05-14T11:10:16;25.00;57.80
27940;DHT22;15275;51.716;14.324;2023-05-14T11:12:45;25.10;59.50
27940;DHT22;15275;51.716;14.324;2023-05-14T11:15:22;25.20;58.90
27940;DHT22;15275;51.716;14.324;2023-05-14T11:17:51;25.40;56.50
27940;DHT22;15275;51.716;14.324;2023-05-14T11:20:19;25.50;57.10
27940;DHT22;15275;51.716;14.324;2023-05-14T11:22:46;25.60;56.00
27940;DHT22;15275;51.716;14.324;2023-05-14T11:25:14;25.70;55.60
27940;DHT22;15275;51.716;14.324;2023-05-14T11:27:42;25.70;56.00
27940;DHT22;15275;51.716;14.324;2023-05-14T11:30:16;25.70;55.70
27940;DHT22;15275;51.716;14.324;2023-05-14T11:32:45;25.60;54.60
27940;DHT22;15275;51.716;14.324;2023-05-14T11:35:12;25.60;55.80
27940;DHT22;15275;51.716;14.324;2023-05-14T11:37:38;25.50;55.00
27940;DHT22;15275;51.716;14.324;2023-05-14T11:40:07;25.50;55.30
27940;DHT22;15275;51.716;14.324;2023-05-14T11:42:35;25.40;55.20
27940;DHT22;15275;51.716;14.324;2023-05-14T11:45:02;25.40;55.70
27940;DHT22;15275;51.716;14.324;2023-05-14T11:47:28;25.40;55.80
27940;DHT22;15275;51.716;14.324;2023-05-14T11:49:55;25.30;55.20
27940;DHT22;15275;51.716;14.324;2023-05-14T11:52:21;25.30;55.40
27940;DHT22;15275;51.716;14.324;2023-05-14T11:54:47;25.30;55.50
27940;DHT22;15275;51.716;14.324;2023-05-14T11:57:18;25.30;56.00
27940;DHT22;15275;51.716;14.324;2023-05-14T11:59:46;25.30;55.50
27940;DHT22;15275;51.716;14.324;2023-05-14T12:02:17;25.20;56.00
27940;DHT22;15275;51.716;14.324;2023-05-14T12:04:49;25.20;54.60
27940;DHT22;15275;51.716;14.324;2023-05-14T12:07:18;25.20;54.40
27940;DHT22;15275;51.716;14.324;2023-05-14T12:09:46;25.10;56.00
27940;DHT22;15275;51.716;14.324;2023-05-14T12:12:20;25.00;55.40
27940;DHT22;15275;51.716;14.324;2023-05-14T12:14:48;24.90;54.10
27940;DHT22;15275;51.716;14.324;2023-05-14T12:17:22;24.80;55.80
27940;DHT22;15275;51.716;14.324;2023-05-14T12:19:49;24.70;55.20
27940;DHT22;15275;51.716;14.324;2023-05-14T12:22:18;24.60;55.90
27940;DHT22;15275;51.716;14.324;2023-05-14T12:24:52;24.50;56.00
27940;DHT22;15275;51.716;14.324;2023-05-14T12:27:24;24.40;54.40
27940;DHT22;15275;51.716;14.324;2023-05-14T12:29:58;24.30;56.00
27940;DHT22;15275;51.716;14.324;2023-05-14T12:32:31;24.20;55.30
27940;DHT22;15275;51.716;14.324;2023-05-14T12:34:58;24.10;56.90
27940;DHT22;15275;51.716;14.324;2023-05-14T12:37:24;24.00;57.20
27940;DHT22;15275;51.716;14.324;2023-05-14T12:39:50;24.00;57.30
27940;DHT22;15275;51.716;14.324;2023-05-14T12:42:16;23.90;57.40
27940;DHT22;15275;51.716;14.324;2023-05-14T12:44:42;23.90;58.00
27940;DHT22;15275;51.716;14.324;2023-05-14T12:47:08;23.80;58.10
27940;DHT22;15275;51.716;14.324;2023-05-14T12:49:34;23.80;57.90
27940;DHT22;15275;51.716;14.324;2023-05-14T12:52:00;23.80;58.00
27940;DHT22;15275;51.716;14.324;2023-05-14T12:54:26;23.70;58.40
27940;DHT22;15275;51.716;14.324;2023-05-14T12:56:52;23.70;58.90
27940;DHT22;15275;51.716;14.324;2023-05-14T12:59:18;23.70;59.30
27940;DHT22;15275;51.716;14.324;2023-05-14T13:01:44;23.80;58.90
27940;DHT22;15275;51.716;14.324;2023-05-14T13:04:10;23.80;59.00
27940;DHT22;15275;51.716;14.324;2023-05-14T13:06:39;23.80;58.50
27940;DHT22;15275;51.716;14.324;2023-05-14T13:09:08;23.80;57.90
27940;DHT22;15275;51.716;14.324;2023-05-14T13:11:34;23.80;58.30
27940;DHT22;15275;51.716;14.324;2023-05-14T13:14:01;23.80;58.50
27940;DHT22;15275;51.716;14.324;2023-05-14T13:16:27;23.80;58.40
27940;DHT22;15275;51.716;14.324;2023-05-14T13:18:54;23.80;58.40
27940;DHT22;15275;51.716;14.324;2023-05-14T13:21:20;23.80;58.50
27940;DHT22;15275;51.716;14.324;2023-05-14T13:23:47;23.80;58.10
27940;DHT22;15275;51.716;14.324;2023-05-14T13:26:13;23.80;58.10
27940;DHT22;15275;51.716;14.324;2023-05-14T13:28:40;23.80;58.60
27940;DHT22;15275;51.716;14.324;2023-05-14T13:31:10;23.80;58.80
27940;DHT22;15275;51.716;14.324;2023-05-14T13:33:39;23.80;59.10
27940;DHT22;15275;51.716;14.324;2023-05-14T13:36:07;23.80;58.30
27940;DHT22;15275;51.716;14.324;2023-05-14T13:38:33;23.80;59.00
27940;DHT22;15275;51.716;14.324;2023-05-14T13:40:59;23.90;58.80
27940;DHT22;15275;51.716;14.324;2023-05-14T13:43:29;23.90;59.30
27940;DHT22;15275;51.716;14.324;2023-05-14T13:45:58;24.00;58.50
27940;DHT22;15275;51.716;14.324;2023-05-14T13:48:25;24.00;58.60
27940;DHT22;15275;51.716;14.324;2023-05-14T13:50:52;24.10;58.40
27940;DHT22;15275;51.716;14.324;2023-05-14T13:53:19;24.20;58.20
27940;DHT22;15275;51.716;14.324;2023-05-14T13:55:46;24.40;58.20
27940;DHT22;15275;51.716;14.324;2023-05-14T13:58:13;24.40;58.40
27940;DHT22;15275;51.716;14.324;2023-05-14T14:00:39;24.50;57.50
27940;DHT22;15275;51.716;14.324;2023-05-14T14:03:05;24.60;57.90
27940;DHT22;15275;51.716;14.324;2023-05-14T14:05:33;24.70;57.80
27940;DHT22;15275;51.716;14.324;2023-05-14T14:08:00;24.70;56.90
27940;DHT22;15275;51.716;14.324;2023-05-14T14:10:25;24.70;56.70
27940;DHT22;15275;51.716;14.324;2023-05-14T14:12:52;24.70;56.70
27940;DHT22;15275;51.716;14.324;2023-05-14T14:15:18;24.70;56.40
27940;DHT22;15275;51.716;14.324;2023-05-14T14:17:44;24.70;57.20
27940;DHT22;15275;51.716;14.324;2023-05-14T14:20:10;24.70;57.00
27940;DHT22;15275;51.716;14.324;2023-05-14T14:22:37;24.70;57.00
27940;DHT22;15275;51.716;14.324;2023-05-14T14:25:03;24.70;56.50
27940;DHT22;15275;51.716;14.324;2023-05-14T14:27:29;24.60;56.00
27940;DHT22;15275;51.716;14.324;2023-05-14T14:30:00;24.60;56.30
27940;DHT22;15275;51.716;14.324;2023-05-14T14:32:26;24.60;56.10
27940;DHT22;15275;51.716;14.324;2023-05-14T14:34:52;24.50;56.60
27940;DHT22;15275;51.716;14.324;2023-05-14T14:37:18;24.50;56.60
27940;DHT22;15275;51.716;14.324;2023-05-14T14:39:43;24.50;57.10
27940;DHT22;15275;51.716;14.324;2023-05-14T14:42:09;24.40;56.60
27940;DHT22;15275;51.716;14.324;2023-05-14T14:44:35;24.40;56.00
27940;DHT22;15275;51.716;14.324;2023-05-14T14:47:01;24.40;56.40
27940;DHT22;15275;51.716;14.324;2023-05-14T14:49:27;24.40;56.80
27940;DHT22;15275;51.716;14.324;2023-05-14T14:51:53;24.30;56.40
27940;DHT22;15275;51.716;14.324;2023-05-14T14:54:19;24.30;55.90
27940;DHT22;15275;51.716;14.324;2023-05-14T14:56:45;24.30;56.20
27940;DHT22;15275;51.716;14.324;2023-05-14T14:59:13;24.30;56.00
27940;DHT22;15275;51.716;14.324;2023-05-14T15:01:39;24.30;56.80
27940;DHT22;15275;51.716;14.324;2023-05-14T15:04:05;24.30;57.00
27940;DHT22;15275;51.716;14.324;2023-05-14T15:06:31;24.30;57.20
27940;DHT22;15275;51.716;14.324;2023-05-14T15:08:57;24.30;57.50
27940;DHT22;15275;51.716;14.324;2023-05-14T15:11:23;24.30;57.00
27940;DHT22;15275;51.716;14.324;2023-05-14T15:13:49;24.30;56.20
27940;DHT22;15275;51.716;14.324;2023-05-14T15:16:15;24.30;56.40
27940;DHT22;15275;51.716;14.324;2023-05-14T15:18:41;24.30;57.40
27940;DHT22;15275;51.716;14.324;2023-05-14T15:21:07;24.30;56.90
27940;DHT22;15275;51.716;14.324;2023-05-14T15:23:33;24.30;56.50